Tubac, Arizona
Current Conditions -  °F | °C
As of 9:54 AM on Saturday 22 Nov 2014 (Local Time) from KOLS Reporting Station
Clear Clear  
Wind Chill: 49°   Ceiling: Unl
Heat Index: 49°   Visibility: 10mi
Dew Point: 38°   Wind: 3mph
Humidity: 66%   Direction: 250°WSW
Pressure: 30.15"   Gusts: NA
Location:  31.61°N, 111.05°W
Report Text: KOLS 221654Z AUTO 25003KT 10SM CLR 09/03 A3015 RMK AO2 SLP185 T00940033
Loading
Personal Weather Stations






























Interactive Weather Map New forecast layout! Learn more

10-Day Weather Forecast

Advertisements
Track Severe Weather on mobile